Time;durP1;ratioP1;P1;durP2;ratioP2;P2;SDS_P1;SDS_P2;PMS_P1;PMS_P2;Temp;Humidity;BMP_temperature;BMP_pressure;BME280_temperature;BME280_humidity;BME280_pressure;Samples;Min_cycle;Max_cycle;Signal;HPM_P1;HPM_P2
2023/01/31 00:01:54;;;;;;;;;;;;;;;;;;4947726;28;19933;-68
2023/01/31 00:04:20;;;;;;;;;;;;;;;;;;4972914;28;20137;-68
2023/01/31 00:06:49;;;;;;;;;;;;;;;;;;4959856;28;20393;-69
2023/01/31 00:09:15;;;;;;;;;;;;;;;;;;4957217;28;19922;-67
2023/01/31 00:11:41;;;;;;;;;;;;;;;;;;4971240;28;20606;-68
2023/01/31 00:14:07;;;;;;;;;;;;;;;;;;4971560;28;19917;-67
2023/01/31 00:16:32;;;;;;;;;;;;;;;;;;4953920;28;19964;-67
2023/01/31 00:18:57;;;;;;;;;;;;;;;;;;4972011;28;19929;-68
2023/01/31 00:21:22;;;;;;;;;;;;;;;;;;4969532;28;19921;-67
2023/01/31 00:23:48;;;;;;;;;;;;;;;;;;4945597;28;20362;-67
2023/01/31 00:29:39;;;;;;;;;;;;;;;;;;4978376;28;19948;-68
2023/01/31 00:32:04;;;;;;;;;;;;;;;;;;4933429;28;21002;-69
2023/01/31 00:34:30;;;;;;;;;;;;;;;;;;4956307;28;19960;-66
2023/01/31 00:36:55;;;;;;;;;;;;;;;;;;4974590;28;20001;-67
2023/01/31 00:39:20;;;;;;;;;;;;;;;;;;4974008;28;19925;-67
2023/01/31 00:41:46;;;;;;;;;;;;;;;;;;4956853;28;19932;-67
2023/01/31 00:44:11;;;;;;;;;;;;;;;;;;4976766;28;19922;-67
2023/01/31 00:46:36;;;;;;;;;;;;;;;;;;4974614;28;19932;-67
2023/01/31 00:49:04;;;;;;;;;;;;;;;;;;4965460;28;19922;-67
2023/01/31 00:51:29;;;;;;;;;;;;;;;;;;4973435;28;19965;-67
2023/01/31 00:53:54;;;;;;;;;;;;;;;;;;4976557;28;19996;-67
2023/01/31 00:56:21;;;;;;;;;;;;;;;;;;4949901;28;19922;-67
2023/01/31 00:58:47;;;;;;;;;;;;;;;;;;4963512;28;19925;-66
2023/01/31 01:01:12;;;;;;;;;;;;;;;;;;4974117;28;19961;-68
2023/01/31 01:03:39;;;;;;;;;;;;;;;;;;4959712;28;20575;-68
2023/01/31 01:06:05;;;;;;;;;;;;;;;;;;4957699;28;19921;-68
2023/01/31 01:08:30;;;;;;;;;;;;;;;;;;4960714;28;19932;-68
2023/01/31 01:10:55;;;;;;;;;;;;;;;;;;4962473;28;20274;-67
2023/01/31 01:13:21;;;;;;;;;;;;;;;;;;4973782;28;19929;-67
2023/01/31 01:15:46;;;;;;;;;;;;;;;;;;4964130;28;19922;-68
2023/01/31 01:18:11;;;;;;;;;;;;;;;;;;4962308;28;19964;-67
2023/01/31 01:20:37;;;;;;;;;;;;;;;;;;4976268;28;19917;-67
2023/01/31 01:23:02;;;;;;;;;;;;;;;;;;4973969;28;20382;-68
2023/01/31 01:25:27;;;;;;;;;;;;;;;;;;4975941;28;20463;-66
2023/01/31 01:27:52;;;;;;;;;;;;;;;;;;4959239;28;20345;-67
2023/01/31 01:30:20;;;;;;;;;;;;;;;;;;4943128;28;20648;-69
2023/01/31 01:32:45;;;;;;;;;;;;;;;;;;4961495;28;21818;-67
2023/01/31 01:35:16;;;;;;;;;;;;;;;;;;4948471;28;19928;-66
2023/01/31 01:37:41;;;;;;;;;;;;;;;;;;4939917;28;19937;-66
2023/01/31 01:40:11;;;;;;;;;;;;;;;;;;4943391;28;20037;-67
2023/01/31 01:42:36;;;;;;;;;;;;;;;;;;4965171;28;20017;-69
2023/01/31 01:45:04;;;;;;;;;;;;;;;;;;4965793;28;19925;-69
2023/01/31 01:47:29;;;;;;;;;;;;;;;;;;4960917;28;20020;-68
2023/01/31 01:49:54;;;;;;;;;;;;;;;;;;4975101;28;21965;-68
2023/01/31 01:52:20;;;;;;;;;;;;;;;;;;4947978;28;20521;-67
2023/01/31 01:54:45;;;;;;;;;;;;;;;;;;4957308;28;20014;-66
2023/01/31 01:57:10;;;;;;;;;;;;;;;;;;4962491;28;19922;-67
2023/01/31 01:59:36;;;;;;;;;;;;;;;;;;4975555;28;19979;-69
2023/01/31 02:02:04;;;;;;;;;;;;;;;;;;4951447;28;20901;-68
2023/01/31 02:04:29;;;;;;;;;;;;;;;;;;4959267;28;19925;-68
2023/01/31 02:06:59;;;;;;;;;;;;;;;;;;4944493;28;19917;-67
2023/01/31 02:09:24;;;;;;;;;;;;;;;;;;4960624;28;19922;-67
2023/01/31 02:11:52;;;;;;;;;;;;;;;;;;4960775;28;20025;-67
2023/01/31 02:14:18;;;;;;;;;;;;;;;;;;4958185;28;20013;-67
2023/01/31 02:16:45;;;;;;;;;;;;;;;;;;4961371;28;19952;-67
2023/01/31 02:19:11;;;;;;;;;;;;;;;;;;4945208;28;19925;-67
2023/01/31 02:21:36;;;;;;;;;;;;;;;;;;4973153;28;19971;-68
2023/01/31 02:24:04;;;;;;;;;;;;;;;;;;4971902;28;19918;-67
2023/01/31 02:26:32;;;;;;;;;;;;;;;;;;4963047;28;19993;-66
2023/01/31 02:29:00;;;;;;;;;;;;;;;;;;4947859;28;19929;-67
2023/01/31 02:31:28;;;;;;;;;;;;;;;;;;4941926;28;20011;-66
2023/01/31 02:33:53;;;;;;;;;;;;;;;;;;4972644;28;20572;-67
2023/01/31 02:36:21;;;;;;;;;;;;;;;;;;4972590;28;20366;-66
2023/01/31 02:38:46;;;;;;;;;;;;;;;;;;4972344;28;19925;-67
2023/01/31 02:41:14;;;;;;;;;;;;;;;;;;4962016;28;19918;-66
2023/01/31 02:46:23;;;;;;;;;;;;;;;;;;4959786;28;20381;-68
2023/01/31 02:48:48;;;;;;;;;;;;;;;;;;4948001;28;19969;-66
2023/01/31 02:51:14;;;;;;;;;;;;;;;;;;4973476;28;20063;-67
2023/01/31 02:53:41;;;;;;;;;;;;;;;;;;4962640;28;20038;-66
2023/01/31 02:56:19;;;;;;;;;;;;;;;;;;4962489;28;19925;-66
2023/01/31 02:58:44;;;;;;;;;;;;;;;;;;4939929;28;20066;-66
2023/01/31 03:01:09;;;;;;;;;;;;;;;;;;4970273;28;19930;-66
2023/01/31 03:03:35;;;;;;;;;;;;;;;;;;4944308;28;19921;-66
2023/01/31 03:06:00;;;;;;;;;;;;;;;;;;4959937;28;20004;-65
2023/01/31 03:08:28;;;;;;;;;;;;;;;;;;4974279;28;21840;-65
2023/01/31 03:10:53;;;;;;;;;;;;;;;;;;4973690;28;19918;-66
2023/01/31 03:13:19;;;;;;;;;;;;;;;;;;4954345;28;19921;-66
2023/01/31 03:18:31;;;;;;;;;;;;;;;;;;4955355;28;19925;-64
2023/01/31 03:24:13;;;;;;;;;;;;;;;;;;4973234;28;19925;-65
2023/01/31 03:26:38;;;;;;;;;;;;;;;;;;4970173;28;19917;-66
2023/01/31 03:29:06;;;;;;;;;;;;;;;;;;4974625;28;19918;-66
2023/01/31 03:31:34;;;;;;;;;;;;;;;;;;4953841;28;19932;-66
2023/01/31 03:33:59;;;;;;;;;;;;;;;;;;4940784;28;19988;-65
2023/01/31 03:36:24;;;;;;;;;;;;;;;;;;4971693;28;20475;-65
2023/01/31 03:38:49;;;;;;;;;;;;;;;;;;4956623;28;19925;-66
2023/01/31 03:41:15;;;;;;;;;;;;;;;;;;4958105;28;19971;-65
2023/01/31 03:43:40;;;;;;;;;;;;;;;;;;4946405;28;19922;-66
2023/01/31 03:46:05;;;;;;;;;;;;;;;;;;4970105;28;19970;-66
2023/01/31 03:48:33;;;;;;;;;;;;;;;;;;4944308;28;20411;-65
2023/01/31 03:51:01;;;;;;;;;;;;;;;;;;4971710;28;19918;-67
2023/01/31 03:53:26;;;;;;;;;;;;;;;;;;4960968;28;19917;-66
2023/01/31 03:55:54;;;;;;;;;;;;;;;;;;4956962;28;19926;-66
2023/01/31 03:58:19;;;;;;;;;;;;;;;;;;4959165;28;20016;-65
2023/01/31 04:00:45;;;;;;;;;;;;;;;;;;4975302;28;21991;-66
2023/01/31 04:03:10;;;;;;;;;;;;;;;;;;4973014;28;19932;-65
2023/01/31 04:05:35;;;;;;;;;;;;;;;;;;4974960;28;19921;-67
2023/01/31 04:08:01;;;;;;;;;;;;;;;;;;4950884;28;20285;-66
2023/01/31 04:10:26;;;;;;;;;;;;;;;;;;4962960;28;20570;-65
2023/01/31 04:12:51;;;;;;;;;;;;;;;;;;4960975;28;21036;-65
2023/01/31 04:15:19;;;;;;;;;;;;;;;;;;4974411;28;20045;-66
2023/01/31 04:17:44;;;;;;;;;;;;;;;;;;4960814;28;19917;-65
2023/01/31 04:20:10;;;;;;;;;;;;;;;;;;4947598;28;19978;-65
2023/01/31 04:22:36;;;;;;;;;;;;;;;;;;4958700;28;19972;-65
2023/01/31 04:25:04;;;;;;;;;;;;;;;;;;4956418;28;20657;-66
2023/01/31 04:27:29;;;;;;;;;;;;;;;;;;4971623;28;19968;-66
2023/01/31 04:29:54;;;;;;;;;;;;;;;;;;4973692;28;19922;-65
2023/01/31 04:32:22;;;;;;;;;;;;;;;;;;4975659;28;19928;-65
2023/01/31 04:34:48;;;;;;;;;;;;;;;;;;4975654;28;19917;-65
2023/01/31 04:37:13;;;;;;;;;;;;;;;;;;4974716;28;19928;-64
2023/01/31 04:39:38;;;;;;;;;;;;;;;;;;4942747;28;19922;-65
2023/01/31 04:42:06;;;;;;;;;;;;;;;;;;4963186;28;21833;-64
2023/01/31 04:44:34;;;;;;;;;;;;;;;;;;4965675;28;19925;-64
2023/01/31 04:46:59;;;;;;;;;;;;;;;;;;4957628;28;19988;-64
2023/01/31 04:49:25;;;;;;;;;;;;;;;;;;4972476;28;20258;-65
2023/01/31 04:51:50;;;;;;;;;;;;;;;;;;4975789;28;20043;-65
2023/01/31 04:54:18;;;;;;;;;;;;;;;;;;4963261;28;19983;-65
2023/01/31 04:56:46;;;;;;;;;;;;;;;;;;4958231;28;19925;-65
2023/01/31 04:59:11;;;;;;;;;;;;;;;;;;4959515;28;20431;-65
2023/01/31 05:01:37;;;;;;;;;;;;;;;;;;4958683;28;20016;-63
2023/01/31 05:04:02;;;;;;;;;;;;;;;;;;4962910;28;20011;-64
2023/01/31 05:06:27;;;;;;;;;;;;;;;;;;4948810;28;19949;-65
2023/01/31 05:08:53;;;;;;;;;;;;;;;;;;4959883;28;21953;-65
2023/01/31 05:11:18;;;;;;;;;;;;;;;;;;4942911;28;19922;-65
2023/01/31 05:13:44;;;;;;;;;;;;;;;;;;4950381;28;19917;-65
2023/01/31 05:16:12;;;;;;;;;;;;;;;;;;4961514;28;19921;-66
2023/01/31 05:18:39;;;;;;;;;;;;;;;;;;4947330;28;19926;-65
2023/01/31 05:21:05;;;;;;;;;;;;;;;;;;4959795;28;19918;-64
2023/01/31 05:23:30;;;;;;;;;;;;;;;;;;4974135;28;19922;-65
2023/01/31 05:25:55;;;;;;;;;;;;;;;;;;4948980;28;19918;-66
2023/01/31 05:28:24;;;;;;;;;;;;;;;;;;4957350;28;20302;-66
2023/01/31 05:30:52;;;;;;;;;;;;;;;;;;4974646;28;20407;-64
2023/01/31 05:33:19;;;;;;;;;;;;;;;;;;4950128;28;19918;-63
2023/01/31 05:35:44;;;;;;;;;;;;;;;;;;4952846;28;20008;-65
2023/01/31 05:38:10;;;;;;;;;;;;;;;;;;4970053;28;20201;-66
2023/01/31 05:40:35;;;;;;;;;;;;;;;;;;4971846;28;19929;-65
2023/01/31 05:43:00;;;;;;;;;;;;;;;;;;4960054;28;19953;-64
2023/01/31 05:45:28;;;;;;;;;;;;;;;;;;4965671;28;20115;-65
2023/01/31 05:47:54;;;;;;;;;;;;;;;;;;4959787;28;20608;-64
2023/01/31 05:50:22;;;;;;;;;;;;;;;;;;4956653;28;20090;-66
2023/01/31 05:52:47;;;;;;;;;;;;;;;;;;4957608;28;20377;-66
2023/01/31 05:55:15;;;;;;;;;;;;;;;;;;4944693;28;19918;-65
2023/01/31 05:57:40;;;;;;;;;;;;;;;;;;4957115;28;20032;-64
2023/01/31 06:00:08;;;;;;;;;;;;;;;;;;4967938;28;19933;-65
2023/01/31 06:02:36;;;;;;;;;;;;;;;;;;4955593;28;20008;-65
2023/01/31 06:05:01;;;;;;;;;;;;;;;;;;4953470;28;19922;-65
2023/01/31 06:07:27;;;;;;;;;;;;;;;;;;4945810;28;20373;-63
2023/01/31 06:09:52;;;;;;;;;;;;;;;;;;4959383;28;19956;-65
2023/01/31 06:12:20;;;;;;;;;;;;;;;;;;4974036;28;19973;-64
2023/01/31 06:14:48;;;;;;;;;;;;;;;;;;4946776;28;19917;-65
2023/01/31 06:17:13;;;;;;;;;;;;;;;;;;4954317;28;19917;-64
2023/01/31 06:19:42;;;;;;;;;;;;;;;;;;4949105;28;20586;-64
2023/01/31 06:22:10;;;;;;;;;;;;;;;;;;4963842;28;19917;-62
2023/01/31 06:24:37;;;;;;;;;;;;;;;;;;4959241;28;20511;-61
2023/01/31 06:27:05;;;;;;;;;;;;;;;;;;4965207;28;19922;-64
2023/01/31 06:29:33;;;;;;;;;;;;;;;;;;4948969;28;19921;-64
2023/01/31 06:32:04;;;;;;;;;;;;;;;;;;4959709;28;19981;-65
2023/01/31 06:34:29;;;;;;;;;;;;;;;;;;4945851;28;20595;-64
2023/01/31 06:36:54;;;;;;;;;;;;;;;;;;4971100;28;20056;-64
2023/01/31 06:39:25;;;;;;;;;;;;;;;;;;4975262;28;19932;-64
2023/01/31 06:41:53;;;;;;;;;;;;;;;;;;4958189;28;19964;-64
2023/01/31 06:44:19;;;;;;;;;;;;;;;;;;4973713;28;20332;-63
2023/01/31 06:46:44;;;;;;;;;;;;;;;;;;4972939;28;20840;-64
2023/01/31 06:49:09;;;;;;;;;;;;;;;;;;4965227;28;19921;-64
2023/01/31 06:51:35;;;;;;;;;;;;;;;;;;4946532;28;19918;-64
2023/01/31 06:54:02;;;;;;;;;;;;;;;;;;4960160;28;19968;-64
2023/01/31 06:56:30;;;;;;;;;;;;;;;;;;4973963;28;20012;-63
2023/01/31 06:58:58;;;;;;;;;;;;;;;;;;4948388;28;21022;-64
2023/01/31 07:01:26;;;;;;;;;;;;;;;;;;4958962;28;20052;-65
2023/01/31 07:03:54;;;;;;;;;;;;;;;;;;4966356;28;19953;-64
2023/01/31 07:06:21;;;;;;;;;;;;;;;;;;4946601;28;20544;-64
2023/01/31 07:08:48;;;;;;;;;;;;;;;;;;4939479;28;19929;-64
2023/01/31 07:11:16;;;;;;;;;;;;;;;;;;4970904;28;19948;-64
2023/01/31 07:13:41;;;;;;;;;;;;;;;;;;4959658;28;20037;-66
2023/01/31 07:16:09;;;;;;;;;;;;;;;;;;4961390;28;19928;-63
2023/01/31 07:18:35;;;;;;;;;;;;;;;;;;4955397;28;19925;-64
2023/01/31 07:21:00;;;;;;;;;;;;;;;;;;4957795;28;19929;-64
2023/01/31 07:23:25;;;;;;;;;;;;;;;;;;4957130;28;19929;-65
2023/01/31 07:25:50;;;;;;;;;;;;;;;;;;4973423;28;19921;-66
2023/01/31 07:28:16;;;;;;;;;;;;;;;;;;4958891;28;20492;-66
2023/01/31 07:30:42;;;;;;;;;;;;;;;;;;4970471;28;19921;-65
2023/01/31 07:33:07;;;;;;;;;;;;;;;;;;4962952;28;20692;-64
2023/01/31 07:35:33;;;;;;;;;;;;;;;;;;4972939;28;19922;-66
2023/01/31 07:37:58;;;;;;;;;;;;;;;;;;4956355;28;19949;-67
2023/01/31 07:40:29;;;;;;;;;;;;;;;;;;4974156;28;19952;-65
2023/01/31 07:46:13;;;;;;;;;;;;;;;;;;4973704;28;19961;-66
2023/01/31 07:48:41;;;;;;;;;;;;;;;;;;4962350;28;20055;-65
2023/01/31 07:51:07;;;;;;;;;;;;;;;;;;4970440;28;19948;-64
2023/01/31 07:53:32;;;;;;;;;;;;;;;;;;4959408;28;19999;-64
2023/01/31 07:55:57;;;;;;;;;;;;;;;;;;4947265;28;19921;-68
2023/01/31 07:58:25;;;;;;;;;;;;;;;;;;4972229;28;19927;-68
2023/01/31 08:03:37;;;;;;;;;;;;;;;;;;4964176;28;19932;-66
2023/01/31 08:06:05;;;;;;;;;;;;;;;;;;4953353;28;19932;-67
2023/01/31 08:08:33;;;;;;;;;;;;;;;;;;4965819;28;19921;-66
2023/01/31 08:10:58;;;;;;;;;;;;;;;;;;4944257;28;20988;-65
2023/01/31 08:13:25;;;;;;;;;;;;;;;;;;4972761;28;19918;-65
2023/01/31 08:15:51;;;;;;;;;;;;;;;;;;4962393;28;19953;-68
2023/01/31 08:18:16;;;;;;;;;;;;;;;;;;4946017;28;20019;-65
2023/01/31 08:20:41;;;;;;;;;;;;;;;;;;4973496;28;19925;-67
2023/01/31 08:23:07;;;;;;;;;;;;;;;;;;4957681;28;19956;-66
2023/01/31 08:25:35;;;;;;;;;;;;;;;;;;4974058;28;19932;-65
2023/01/31 08:28:00;;;;;;;;;;;;;;;;;;4959336;28;19918;-66
2023/01/31 08:30:28;;;;;;;;;;;;;;;;;;4943411;28;20000;-68
2023/01/31 08:32:54;;;;;;;;;;;;;;;;;;4972161;28;19917;-66
2023/01/31 08:35:21;;;;;;;;;;;;;;;;;;4974127;28;19928;-65
2023/01/31 08:37:49;;;;;;;;;;;;;;;;;;4959490;28;20324;-66
2023/01/31 08:40:14;;;;;;;;;;;;;;;;;;4941711;28;19926;-66
2023/01/31 08:42:43;;;;;;;;;;;;;;;;;;4958456;28;19932;-66
2023/01/31 08:45:08;;;;;;;;;;;;;;;;;;4965488;28;19922;-66
2023/01/31 08:47:33;;;;;;;;;;;;;;;;;;4956390;28;19918;-64
2023/01/31 08:50:01;;;;;;;;;;;;;;;;;;4947449;28;19928;-68
2023/01/31 08:52:26;;;;;;;;;;;;;;;;;;4964211;28;20854;-67
2023/01/31 08:54:51;;;;;;;;;;;;;;;;;;4975975;28;20020;-66
2023/01/31 08:57:20;;;;;;;;;;;;;;;;;;4978510;28;19957;-67
2023/01/31 08:59:45;;;;;;;;;;;;;;;;;;4961819;28;19922;-68
2023/01/31 09:02:13;;;;;;;;;;;;;;;;;;4957660;28;20654;-67
2023/01/31 09:04:41;;;;;;;;;;;;;;;;;;4976166;28;19918;-69
2023/01/31 09:07:06;;;;;;;;;;;;;;;;;;4964562;28;19998;-69
2023/01/31 09:09:31;;;;;;;;;;;;;;;;;;4975458;28;20930;-69
2023/01/31 09:12:00;;;;;;;;;;;;;;;;;;4976417;28;19928;-72
2023/01/31 09:14:25;;;;;;;;;;;;;;;;;;4963013;28;20281;-69
2023/01/31 09:16:51;;;;;;;;;;;;;;;;;;4960172;28;21219;-67
2023/01/31 09:19:16;;;;;;;;;;;;;;;;;;4946628;28;19928;-68
2023/01/31 09:21:41;;;;;;;;;;;;;;;;;;4976509;28;19926;-67
2023/01/31 09:24:07;;;;;;;;;;;;;;;;;;4945100;28;19929;-71
2023/01/31 09:26:35;;;;;;;;;;;;;;;;;;4953668;28;20027;-69
2023/01/31 09:29:00;;;;;;;;;;;;;;;;;;4965853;28;19928;-70
2023/01/31 09:31:26;;;;;;;;;;;;;;;;;;4968007;28;19960;-67
2023/01/31 09:33:53;;;;;;;;;;;;;;;;;;4961198;28;21814;-69
2023/01/31 09:36:18;;;;;;;;;;;;;;;;;;4970310;28;19921;-66
2023/01/31 09:38:46;;;;;;;;;;;;;;;;;;4957160;28;19925;-67
2023/01/31 09:41:16;;;;;;;;;;;;;;;;;;4959264;28;19917;-68
2023/01/31 09:43:43;;;;;;;;;;;;;;;;;;4975344;28;19928;-70
2023/01/31 09:46:12;;;;;;;;;;;;;;;;;;4952363;28;20008;-70
2023/01/31 09:48:37;;;;;;;;;;;;;;;;;;4973695;28;19948;-69
2023/01/31 09:51:03;;;;;;;;;;;;;;;;;;4972131;28;19968;-68
2023/01/31 09:53:28;;;;;;;;;;;;;;;;;;4962255;28;20004;-68
2023/01/31 09:55:53;;;;;;;;;;;;;;;;;;4960333;28;19996;-70
2023/01/31 09:58:18;;;;;;;;;;;;;;;;;;4959686;28;19918;-68
2023/01/31 10:00:45;;;;;;;;;;;;;;;;;;4970508;28;20543;-68
2023/01/31 10:03:17;;;;;;;;;;;;;;;;;;4960229;28;20016;-67
2023/01/31 10:05:42;;;;;;;;;;;;;;;;;;4957800;28;19930;-67
2023/01/31 10:08:08;;;;;;;;;;;;;;;;;;4976102;28;20512;-67
2023/01/31 10:10:44;;;;;;;;;;;;;;;;;;4935624;28;21947;-67
2023/01/31 10:13:09;;;;;;;;;;;;;;;;;;4919692;28;19926;-66
2023/01/31 10:15:35;;;;;;;;;;;;;;;;;;4924091;28;20130;-70
2023/01/31 10:18:00;;;;;;;;;;;;;;;;;;4936207;28;19940;-68
2023/01/31 10:20:25;;;;;;;;;;;;;;;;;;4918670;28;20186;-68
2023/01/31 10:22:51;;;;;;;;;;;;;;;;;;4903484;28;19921;-69
2023/01/31 10:25:16;;;;;;;;;;;;;;;;;;4937994;28;19918;-67
2023/01/31 10:27:41;;;;;;;;;;;;;;;;;;4941886;28;19922;-70
2023/01/31 10:30:07;;;;;;;;;;;;;;;;;;4920513;28;20437;-70
2023/01/31 10:32:32;;;;;;;;;;;;;;;;;;4932312;28;19922;-69
2023/01/31 10:34:57;;;;;;;;;;;;;;;;;;4921364;28;20010;-68
2023/01/31 10:37:25;;;;;;;;;;;;;;;;;;4935711;28;20004;-67
2023/01/31 10:39:54;;;;;;;;;;;;;;;;;;4921483;28;19926;-67
2023/01/31 10:42:21;;;;;;;;;;;;;;;;;;4936952;28;20048;-69
2023/01/31 10:44:49;;;;;;;;;;;;;;;;;;4935139;28;20278;-68
2023/01/31 10:47:18;;;;;;;;;;;;;;;;;;4938857;28;19928;-68
2023/01/31 10:49:43;;;;;;;;;;;;;;;;;;4938559;28;20301;-68
2023/01/31 10:52:09;;;;;;;;;;;;;;;;;;4936301;28;19969;-67
2023/01/31 10:54:37;;;;;;;;;;;;;;;;;;4925971;28;20066;-70
2023/01/31 10:57:05;;;;;;;;;;;;;;;;;;4939128;28;20752;-72
2023/01/31 10:59:30;;;;;;;;;;;;;;;;;;4957412;28;19926;-69
2023/01/31 11:01:59;;;;;;;;;;;;;;;;;;4966345;28;19968;-68
2023/01/31 11:04:24;;;;;;;;;;;;;;;;;;4957458;28;20227;-66
2023/01/31 11:06:50;;;;;;;;;;;;;;;;;;4967919;28;19971;-65
2023/01/31 11:09:16;;;;;;;;;;;;;;;;;;4960213;28;20645;-72
2023/01/31 11:11:44;;;;;;;;;;;;;;;;;;4943467;28;19996;-68
2023/01/31 11:14:12;;;;;;;;;;;;;;;;;;4969311;28;20189;-68
2023/01/31 11:16:37;;;;;;;;;;;;;;;;;;4942899;28;19929;-68
2023/01/31 11:19:03;;;;;;;;;;;;;;;;;;4944986;28;19992;-68
2023/01/31 11:21:31;;;;;;;;;;;;;;;;;;4953878;28;19931;-66
2023/01/31 11:23:56;;;;;;;;;;;;;;;;;;4955686;28;19925;-66
2023/01/31 11:26:21;;;;;;;;;;;;;;;;;;4972630;28;19929;-67
2023/01/31 11:28:49;;;;;;;;;;;;;;;;;;4954545;28;19932;-66
2023/01/31 11:31:17;;;;;;;;;;;;;;;;;;4953478;28;20157;-70
2023/01/31 11:33:46;;;;;;;;;;;;;;;;;;4954527;28;20305;-68
2023/01/31 11:36:13;;;;;;;;;;;;;;;;;;4945038;28;19988;-68
2023/01/31 11:38:38;;;;;;;;;;;;;;;;;;4969439;28;20382;-64
2023/01/31 11:41:07;;;;;;;;;;;;;;;;;;4968451;28;20016;-65
2023/01/31 11:43:32;;;;;;;;;;;;;;;;;;4949888;28;21533;-65
2023/01/31 11:45:57;;;;;;;;;;;;;;;;;;4967707;28;20116;-65
2023/01/31 11:48:25;;;;;;;;;;;;;;;;;;4969950;28;20370;-64
2023/01/31 11:50:53;;;;;;;;;;;;;;;;;;4954664;28;19985;-64
2023/01/31 11:53:24;;;;;;;;;;;;;;;;;;4956022;28;19949;-66
2023/01/31 11:55:53;;;;;;;;;;;;;;;;;;4943291;28;19922;-64
2023/01/31 11:58:21;;;;;;;;;;;;;;;;;;4935114;28;20425;-65
2023/01/31 12:00:46;;;;;;;;;;;;;;;;;;4942334;28;19921;-63
2023/01/31 12:03:11;;;;;;;;;;;;;;;;;;4954172;28;20130;-64
2023/01/31 12:05:37;;;;;;;;;;;;;;;;;;4950880;28;19922;-63
2023/01/31 12:08:02;;;;;;;;;;;;;;;;;;4968299;28;20277;-65
2023/01/31 12:10:30;;;;;;;;;;;;;;;;;;4958728;28;19980;-66
2023/01/31 12:12:55;;;;;;;;;;;;;;;;;;4966769;28;20086;-66
2023/01/31 12:15:23;;;;;;;;;;;;;;;;;;4951720;28;19929;-68
2023/01/31 12:17:48;;;;;;;;;;;;;;;;;;4955935;28;20007;-67
2023/01/31 12:20:15;;;;;;;;;;;;;;;;;;4942984;28;20266;-68
2023/01/31 12:22:41;;;;;;;;;;;;;;;;;;4975690;28;20400;-67
2023/01/31 12:25:06;;;;;;;;;;;;;;;;;;4956746;28;20439;-65
2023/01/31 12:27:31;;;;;;;;;;;;;;;;;;4973992;28;19925;-67
2023/01/31 12:29:57;;;;;;;;;;;;;;;;;;4971344;28;20292;-65
2023/01/31 12:32:22;;;;;;;;;;;;;;;;;;4953646;28;20584;-67
2023/01/31 12:34:50;;;;;;;;;;;;;;;;;;4970900;28;20633;-68
2023/01/31 12:37:15;;;;;;;;;;;;;;;;;;4943696;28;19917;-65
2023/01/31 12:39:43;;;;;;;;;;;;;;;;;;4966886;28;20680;-65
2023/01/31 12:42:09;;;;;;;;;;;;;;;;;;4954922;28;19917;-67
2023/01/31 12:44:34;;;;;;;;;;;;;;;;;;4971275;28;19918;-66
2023/01/31 12:46:59;;;;;;;;;;;;;;;;;;4944118;28;19928;-66
2023/01/31 12:49:27;;;;;;;;;;;;;;;;;;4971197;28;19926;-65
2023/01/31 12:51:58;;;;;;;;;;;;;;;;;;4974664;28;19968;-65
2023/01/31 12:54:23;;;;;;;;;;;;;;;;;;4972033;28;20698;-66
2023/01/31 12:56:48;;;;;;;;;;;;;;;;;;4960026;28;19917;-64
2023/01/31 12:59:16;;;;;;;;;;;;;;;;;;4967920;28;19921;-65
2023/01/31 13:01:42;;;;;;;;;;;;;;;;;;4967326;28;20388;-66
2023/01/31 13:04:07;;;;;;;;;;;;;;;;;;4971552;28;20293;-64
2023/01/31 13:06:32;;;;;;;;;;;;;;;;;;4953037;28;20889;-66
2023/01/31 13:09:00;;;;;;;;;;;;;;;;;;4961588;28;21677;-67
2023/01/31 13:11:28;;;;;;;;;;;;;;;;;;4972313;28;20266;-67
2023/01/31 13:13:59;;;;;;;;;;;;;;;;;;4960511;28;20216;-65
2023/01/31 13:16:24;;;;;;;;;;;;;;;;;;4944906;28;20528;-65
2023/01/31 13:18:50;;;;;;;;;;;;;;;;;;4961934;28;19968;-66
2023/01/31 13:21:17;;;;;;;;;;;;;;;;;;4958453;28;21582;-65
2023/01/31 13:23:46;;;;;;;;;;;;;;;;;;4961815;28;19947;-66
2023/01/31 13:26:11;;;;;;;;;;;;;;;;;;4973121;28;20664;-65
2023/01/31 13:28:36;;;;;;;;;;;;;;;;;;4955074;28;19922;-66
2023/01/31 13:31:01;;;;;;;;;;;;;;;;;;4959031;28;20564;-64
2023/01/31 13:33:27;;;;;;;;;;;;;;;;;;4967222;28;19940;-66
2023/01/31 13:35:52;;;;;;;;;;;;;;;;;;4970086;28;19921;-64
2023/01/31 13:38:18;;;;;;;;;;;;;;;;;;4947693;28;19929;-64
2023/01/31 13:40:46;;;;;;;;;;;;;;;;;;4972034;28;20021;-65
2023/01/31 13:43:14;;;;;;;;;;;;;;;;;;4973651;28;19925;-64
2023/01/31 13:45:41;;;;;;;;;;;;;;;;;;4969481;28;19984;-66
2023/01/31 13:48:07;;;;;;;;;;;;;;;;;;4954614;28;20336;-66
2023/01/31 13:50:37;;;;;;;;;;;;;;;;;;4971812;28;19917;-65
2023/01/31 13:53:02;;;;;;;;;;;;;;;;;;4945376;28;20016;-66
2023/01/31 13:55:28;;;;;;;;;;;;;;;;;;4972583;28;19925;-63
2023/01/31 13:57:58;;;;;;;;;;;;;;;;;;4973758;28;19925;-66
2023/01/31 14:00:27;;;;;;;;;;;;;;;;;;4960388;28;19932;-68
2023/01/31 14:02:53;;;;;;;;;;;;;;;;;;4967336;28;19933;-66
2023/01/31 14:05:18;;;;;;;;;;;;;;;;;;4947509;28;19928;-65
2023/01/31 14:07:43;;;;;;;;;;;;;;;;;;4955002;28;19929;-67
2023/01/31 14:10:09;;;;;;;;;;;;;;;;;;4972425;28;20429;-65
2023/01/31 14:12:35;;;;;;;;;;;;;;;;;;4973109;28;20408;-66
2023/01/31 14:15:00;;;;;;;;;;;;;;;;;;4971527;28;20327;-66
2023/01/31 14:17:25;;;;;;;;;;;;;;;;;;4971878;28;20673;-65
2023/01/31 14:19:51;;;;;;;;;;;;;;;;;;4969538;28;20445;-64
2023/01/31 14:22:16;;;;;;;;;;;;;;;;;;4971457;28;19918;-66
2023/01/31 14:24:41;;;;;;;;;;;;;;;;;;4958142;28;20052;-64
2023/01/31 14:27:07;;;;;;;;;;;;;;;;;;4956577;28;19976;-63
2023/01/31 14:29:34;;;;;;;;;;;;;;;;;;4958502;28;19922;-66
2023/01/31 14:32:02;;;;;;;;;;;;;;;;;;4966499;28;19964;-66
2023/01/31 14:34:27;;;;;;;;;;;;;;;;;;4941346;28;20018;-64
2023/01/31 14:36:56;;;;;;;;;;;;;;;;;;4968110;28;19918;-66
2023/01/31 14:39:22;;;;;;;;;;;;;;;;;;4953070;28;20212;-66
2023/01/31 14:41:47;;;;;;;;;;;;;;;;;;4960033;28;20004;-66
2023/01/31 14:44:12;;;;;;;;;;;;;;;;;;4961034;28;19965;-64
2023/01/31 14:46:38;;;;;;;;;;;;;;;;;;4941742;28;19964;-65
2023/01/31 14:49:03;;;;;;;;;;;;;;;;;;4971493;28;19945;-64
2023/01/31 14:51:28;;;;;;;;;;;;;;;;;;4971883;28;19987;-64
2023/01/31 14:53:53;;;;;;;;;;;;;;;;;;4972064;28;19965;-65
2023/01/31 14:56:23;;;;;;;;;;;;;;;;;;4954845;28;19922;-62
2023/01/31 14:58:51;;;;;;;;;;;;;;;;;;4953450;28;19988;-65
2023/01/31 15:01:16;;;;;;;;;;;;;;;;;;4968288;28;19922;-65
2023/01/31 15:03:44;;;;;;;;;;;;;;;;;;4942216;28;20176;-65
2023/01/31 15:06:10;;;;;;;;;;;;;;;;;;4956611;28;19921;-66
2023/01/31 15:08:43;;;;;;;;;;;;;;;;;;4968046;28;19922;-63
2023/01/31 15:11:08;;;;;;;;;;;;;;;;;;4959326;28;19926;-65
2023/01/31 15:13:34;;;;;;;;;;;;;;;;;;4960006;28;20497;-65
2023/01/31 15:15:59;;;;;;;;;;;;;;;;;;4969315;28;19922;-64
2023/01/31 15:18:25;;;;;;;;;;;;;;;;;;4968185;28;20005;-65
2023/01/31 15:20:54;;;;;;;;;;;;;;;;;;4958976;28;20293;-62
2023/01/31 15:23:22;;;;;;;;;;;;;;;;;;4956770;28;19971;-66
2023/01/31 15:25:47;;;;;;;;;;;;;;;;;;4942696;28;19921;-64
2023/01/31 15:28:13;;;;;;;;;;;;;;;;;;4944306;28;19918;-66
2023/01/31 15:30:44;;;;;;;;;;;;;;;;;;4956714;28;20135;-66
2023/01/31 15:33:10;;;;;;;;;;;;;;;;;;4936798;28;20427;-66
2023/01/31 15:35:35;;;;;;;;;;;;;;;;;;4957504;28;20345;-66
2023/01/31 15:38:01;;;;;;;;;;;;;;;;;;4963909;28;20462;-67
2023/01/31 15:40:27;;;;;;;;;;;;;;;;;;4966251;28;20306;-65
2023/01/31 15:42:52;;;;;;;;;;;;;;;;;;4956305;28;20111;-66
2023/01/31 15:45:21;;;;;;;;;;;;;;;;;;4955156;28;20132;-68
2023/01/31 15:47:49;;;;;;;;;;;;;;;;;;4963009;28;19975;-66
2023/01/31 15:50:21;;;;;;;;;;;;;;;;;;4953948;28;20022;-70
2023/01/31 15:52:47;;;;;;;;;;;;;;;;;;4952657;28;19917;-66
2023/01/31 15:55:15;;;;;;;;;;;;;;;;;;4962283;28;19926;-67
2023/01/31 15:57:46;;;;;;;;;;;;;;;;;;4942223;28;19922;-66
2023/01/31 16:00:11;;;;;;;;;;;;;;;;;;4952833;28;19922;-66
2023/01/31 16:02:40;;;;;;;;;;;;;;;;;;4950824;28;21248;-68
2023/01/31 16:05:08;;;;;;;;;;;;;;;;;;4941829;28;20318;-69
2023/01/31 16:07:35;;;;;;;;;;;;;;;;;;4969308;28;20292;-68
2023/01/31 16:10:06;;;;;;;;;;;;;;;;;;4955368;28;19929;-70
2023/01/31 16:12:38;;;;;;;;;;;;;;;;;;4952901;28;20895;-68
2023/01/31 16:15:07;;;;;;;;;;;;;;;;;;4955523;28;19928;-67
2023/01/31 16:17:35;;;;;;;;;;;;;;;;;;4943597;28;20183;-66
2023/01/31 16:20:16;;;;;;;;;;;;;;;;;;4951424;28;19929;-67
2023/01/31 16:22:52;;;;;;;;;;;;;;;;;;4945926;28;19925;-68
2023/01/31 16:25:17;;;;;;;;;;;;;;;;;;4967838;28;19922;-69
2023/01/31 16:27:44;;;;;;;;;;;;;;;;;;4953112;28;19929;-72
2023/01/31 16:30:09;;;;;;;;;;;;;;;;;;4968238;28;19922;-67
2023/01/31 16:32:35;;;;;;;;;;;;;;;;;;4967946;28;20534;-67
2023/01/31 16:35:03;;;;;;;;;;;;;;;;;;4953733;28;20026;-73
2023/01/31 16:37:28;;;;;;;;;;;;;;;;;;4941676;28;19957;-72
2023/01/31 16:39:54;;;;;;;;;;;;;;;;;;4949107;28;19932;-70
2023/01/31 16:42:22;;;;;;;;;;;;;;;;;;4949111;28;19951;-71
2023/01/31 16:44:50;;;;;;;;;;;;;;;;;;4964977;28;20633;-71
2023/01/31 16:47:18;;;;;;;;;;;;;;;;;;4954663;28;19928;-67
2023/01/31 16:49:43;;;;;;;;;;;;;;;;;;4931961;28;19914;-68
2023/01/31 16:52:11;;;;;;;;;;;;;;;;;;4930114;28;20157;-66
2023/01/31 16:54:38;;;;;;;;;;;;;;;;;;4965083;28;20010;-66
2023/01/31 16:57:09;;;;;;;;;;;;;;;;;;4944058;28;20835;-68
2023/01/31 16:59:40;;;;;;;;;;;;;;;;;;4952681;28;19932;-68